createdAt,value
2016-01-27T00:00:22.248Z,0
2016-01-27T00:01:22.219Z,0
2016-01-27T00:02:22.284Z,0
2016-01-27T00:03:22.273Z,0
2016-01-27T00:04:22.243Z,0
2016-01-27T00:05:22.261Z,0
2016-01-27T00:06:22.249Z,0
2016-01-27T00:07:22.286Z,0
2016-01-27T00:08:22.303Z,0
2016-01-27T00:09:22.258Z,0
2016-01-27T00:10:22.261Z,0
2016-01-27T00:11:22.249Z,0
2016-01-27T00:12:22.268Z,0
2016-01-27T00:13:22.287Z,0
2016-01-27T00:14:22.258Z,0
2016-01-27T00:15:22.276Z,0
2016-01-27T00:16:22.266Z,0
2016-01-27T00:17:22.785Z,0
2016-01-27T00:18:22.272Z,0
2016-01-27T00:19:22.259Z,0
2016-01-27T00:20:22.325Z,0
2016-01-27T00:21:22.248Z,0
2016-01-27T00:22:22.284Z,0
2016-01-27T00:23:22.273Z,0
2016-01-27T00:24:22.276Z,0
2016-01-27T00:25:22.279Z,0
2016-01-27T00:26:22.343Z,0
2016-01-27T00:27:22.268Z,0
2016-01-27T00:28:22.288Z,0
2016-01-27T00:29:22.274Z,0
2016-01-27T00:30:22.262Z,0
2016-01-27T00:31:22.280Z,0
2016-01-27T00:32:22.283Z,0
2016-01-27T00:33:22.286Z,0
2016-01-27T00:34:22.305Z,0
2016-01-27T00:35:22.370Z,0
2016-01-27T00:36:22.264Z,0
2016-01-27T00:37:22.283Z,0
2016-01-27T00:38:22.300Z,0
2016-01-27T00:39:22.273Z,0
2016-01-27T00:40:22.119Z,0
2016-01-27T00:41:22.295Z,0
2016-01-27T00:42:22.297Z,0
2016-01-27T00:43:22.300Z,0
2016-01-27T00:44:22.272Z,0
2016-01-27T00:45:22.290Z,0
2016-01-27T00:46:22.294Z,0
2016-01-27T00:47:22.312Z,0
2016-01-27T00:48:22.283Z,0
2016-01-27T00:49:22.285Z,0
2016-01-27T00:50:22.303Z,0
2016-01-27T00:51:22.322Z,0
2016-01-27T00:52:22.261Z,0
2016-01-27T00:53:22.314Z,0
2016-01-27T00:54:22.270Z,0
2016-01-27T00:55:22.289Z,0
2016-01-27T00:56:22.291Z,0
2016-01-27T00:57:22.309Z,0
2016-01-27T00:58:22.313Z,0
2016-01-27T00:59:22.286Z,0
2016-01-27T01:00:22.289Z,0
2016-01-27T01:01:22.308Z,0
2016-01-27T01:02:22.313Z,0
2016-01-27T01:03:22.284Z,0
2016-01-27T01:04:22.286Z,0
2016-01-27T01:05:22.322Z,0
2016-01-27T01:06:22.309Z,0
2016-01-27T01:07:22.281Z,0
2016-01-27T01:08:22.284Z,0
2016-01-27T01:09:22.286Z,0
2016-01-27T01:10:22.290Z,0
2016-01-27T01:11:22.307Z,0
2016-01-27T01:12:22.295Z,0
2016-01-27T01:13:22.298Z,0
2016-01-27T01:14:22.316Z,0
2016-01-27T01:15:22.320Z,0
2016-01-27T01:16:22.323Z,0
2016-01-27T01:17:22.311Z,0
2016-01-27T01:18:22.297Z,0
2016-01-27T01:19:22.165Z,0
2016-01-27T01:20:22.310Z,0
2016-01-27T01:21:22.298Z,0
2016-01-27T01:22:22.302Z,0
2016-01-27T01:23:22.304Z,0
2016-01-27T01:24:22.277Z,0
2016-01-27T01:25:22.297Z,0
2016-01-27T01:26:22.282Z,0
2016-01-27T01:27:22.268Z,0
2016-01-27T01:28:22.289Z,0
2016-01-27T01:29:22.306Z,0
2016-01-27T01:30:22.341Z,0
2016-01-27T01:31:22.280Z,0
2016-01-27T01:32:22.283Z,0
2016-01-27T01:33:22.271Z,0
2016-01-27T01:34:22.320Z,0
2016-01-27T01:35:22.324Z,0
2016-01-27T01:36:22.280Z,0
2016-01-27T01:37:22.303Z,0
2016-01-27T01:38:22.305Z,0
2016-01-27T01:39:22.309Z,0
2016-01-27T01:40:22.298Z,0
2016-01-27T01:41:22.300Z,0
2016-01-27T01:42:22.303Z,0
2016-01-27T01:43:22.306Z,0
2016-01-27T01:44:22.327Z,0
2016-01-27T01:45:22.298Z,0
2016-01-27T01:46:22.286Z,0
2016-01-27T01:47:22.305Z,0
2016-01-27T01:48:22.307Z,0
2016-01-27T01:49:22.326Z,0
2016-01-27T01:50:22.329Z,0
2016-01-27T01:51:22.298Z,0
2016-01-27T01:52:22.301Z,0
2016-01-27T01:53:22.306Z,0
2016-01-27T01:54:22.340Z,0
2016-01-27T01:55:22.405Z,0
2016-01-27T01:56:22.314Z,0
2016-01-27T01:57:22.301Z,0
2016-01-27T01:58:22.321Z,0
2016-01-27T01:59:22.324Z,0
2016-01-27T02:00:22.373Z,0
2016-01-27T02:01:22.298Z,0
2016-01-27T02:02:22.302Z,0
2016-01-27T02:03:22.351Z,0
2016-01-27T02:04:22.339Z,0
2016-01-27T02:05:22.245Z,0
2016-01-27T02:06:22.334Z,0
2016-01-27T02:07:22.297Z,0
2016-01-27T02:08:22.324Z,0
2016-01-27T02:09:22.288Z,0
2016-01-27T02:10:22.315Z,0
2016-01-27T02:11:22.252Z,0
2016-01-27T02:12:22.269Z,0
2016-01-27T02:13:22.268Z,0
2016-01-27T02:14:22.252Z,0
2016-01-27T02:15:22.285Z,0
2016-01-27T02:16:22.256Z,0
2016-01-27T02:17:22.273Z,0
2016-01-27T02:18:22.119Z,0
2016-01-27T02:19:22.262Z,0
2016-01-27T02:20:22.249Z,0
2016-01-27T02:21:22.255Z,0
2016-01-27T02:22:22.274Z,0
2016-01-27T02:23:22.246Z,0
2016-01-27T02:24:22.249Z,0
2016-01-27T02:25:22.298Z,0
2016-01-27T02:26:22.254Z,0
2016-01-27T02:27:22.258Z,0
2016-01-27T02:28:22.276Z,0
2016-01-27T02:29:22.248Z,0
2016-01-27T02:30:22.297Z,0
2016-01-27T02:31:22.254Z,0
2016-01-27T02:32:22.287Z,0
2016-01-27T02:33:22.243Z,0
2016-01-27T02:34:22.246Z,0
2016-01-27T02:35:22.264Z,0
2016-01-27T02:36:22.252Z,0
2016-01-27T02:37:22.255Z,0
2016-01-27T02:38:22.243Z,0
2016-01-27T02:39:22.260Z,0
2016-01-27T02:40:22.279Z,0
2016-01-27T02:41:22.267Z,0
2016-01-27T02:42:22.255Z,0
2016-01-27T02:43:22.241Z,0
2016-01-27T02:44:22.244Z,0
2016-01-27T02:45:22.279Z,0
2016-01-27T02:46:28.535Z,0
2016-01-27T02:47:22.254Z,0
2016-01-27T02:48:22.257Z,0
2016-01-27T02:49:22.276Z,0
2016-01-27T02:50:22.254Z,0
2016-01-27T02:51:22.304Z,0
2016-01-27T02:52:22.247Z,0
2016-01-27T02:53:22.251Z,0
2016-01-27T02:54:22.253Z,0
2016-01-27T02:55:22.256Z,0
2016-01-27T02:56:22.275Z,0
2016-01-27T02:57:22.247Z,0
2016-01-27T02:58:22.249Z,0
2016-01-27T02:59:22.236Z,0
2016-01-27T03:00:22.350Z,0
2016-01-27T03:01:22.274Z,0
2016-01-27T03:02:22.235Z,0
2016-01-27T03:03:22.096Z,0
2016-01-27T03:04:22.255Z,0
2016-01-27T03:05:22.275Z,0
2016-01-27T03:06:22.231Z,0
2016-01-27T03:07:22.250Z,0
2016-01-27T03:08:22.252Z,0
2016-01-27T03:09:22.242Z,0
2016-01-27T03:10:22.292Z,0
2016-01-27T03:11:22.263Z,0
2016-01-27T03:12:22.250Z,0
2016-01-27T03:13:22.237Z,0
2016-01-27T03:14:22.241Z,0
2016-01-27T03:15:22.260Z,0
2016-01-27T03:16:22.247Z,0
2016-01-27T03:17:22.349Z,0
2016-01-27T03:18:22.244Z,0
2016-01-27T03:19:22.266Z,0
2016-01-27T03:20:22.292Z,0
2016-01-27T03:21:22.234Z,0
2016-01-27T03:22:22.236Z,0
2016-01-27T03:23:22.254Z,0
2016-01-27T03:24:22.260Z,0
2016-01-27T03:25:22.341Z,0
2016-01-27T03:26:22.235Z,0
2016-01-27T03:27:22.269Z,0
2016-01-27T03:28:22.632Z,0
2016-01-27T03:29:22.665Z,0
2016-01-27T03:30:22.371Z,0
2016-01-27T03:31:22.251Z,0
2016-01-27T03:32:22.254Z,0
2016-01-27T03:33:22.257Z,0
2016-01-27T03:34:22.259Z,0
2016-01-27T03:35:22.245Z,0
2016-01-27T03:36:22.249Z,0
2016-01-27T03:37:22.284Z,0
2016-01-27T03:38:22.271Z,0
2016-01-27T03:39:22.273Z,0
2016-01-27T03:40:22.295Z,0
2016-01-27T03:41:22.250Z,0
2016-01-27T03:42:22.268Z,0
2016-01-27T03:43:22.318Z,0
2016-01-27T03:44:22.273Z,0
2016-01-27T03:45:22.324Z,0
2016-01-27T03:46:22.217Z,0
2016-01-27T03:47:22.267Z,0
2016-01-27T03:48:22.285Z,0
2016-01-27T03:49:22.274Z,0
2016-01-27T03:50:22.324Z,0
2016-01-27T03:51:22.264Z,0
2016-01-27T03:52:22.316Z,0
2016-01-27T03:53:22.259Z,0
2016-01-27T03:54:22.262Z,0
2016-01-27T03:55:22.265Z,0
2016-01-27T03:56:22.238Z,0
2016-01-27T03:57:22.272Z,0
2016-01-27T03:58:22.276Z,0
2016-01-27T03:59:22.295Z,0
2016-01-27T04:00:22.297Z,0
2016-01-27T04:01:22.111Z,0
2016-01-27T04:02:22.257Z,0
2016-01-27T04:03:22.275Z,0
2016-01-27T04:04:22.262Z,0
2016-01-27T04:05:22.250Z,0
2016-01-27T04:06:22.284Z,0
2016-01-27T04:07:22.271Z,0
2016-01-27T04:08:22.289Z,0
2016-01-27T04:09:22.261Z,0
2016-01-27T04:10:22.280Z,0
2016-01-27T04:11:22.270Z,0
2016-01-27T04:12:22.288Z,0
2016-01-27T04:13:22.244Z,0
2016-01-27T04:14:22.249Z,0
2016-01-27T04:15:22.282Z,0
2016-01-27T04:16:22.286Z,0
2016-01-27T04:17:22.257Z,0
2016-01-27T04:18:22.262Z,0
2016-01-27T04:19:22.248Z,0
2016-01-27T04:20:22.267Z,0
2016-01-27T04:21:22.301Z,0
2016-01-27T04:22:22.258Z,0
2016-01-27T04:23:22.269Z,0
2016-01-27T04:24:22.290Z,0
2016-01-27T04:25:22.310Z,0
2016-01-27T04:26:22.265Z,0
2016-01-27T04:27:22.284Z,0
2016-01-27T04:28:22.256Z,0
2016-01-27T04:29:22.259Z,0
2016-01-27T04:30:22.277Z,0
2016-01-27T04:31:22.295Z,0
2016-01-27T04:32:22.267Z,0
2016-01-27T04:33:22.287Z,0
2016-01-27T04:34:22.259Z,0
2016-01-27T04:35:22.324Z,0
2016-01-27T04:36:22.264Z,0
2016-01-27T04:37:22.250Z,0
2016-01-27T04:38:22.269Z,0
2016-01-27T04:39:22.272Z,0
2016-01-27T04:40:22.294Z,0
2016-01-27T04:41:22.281Z,0
2016-01-27T04:42:22.268Z,0
2016-01-27T04:43:22.256Z,0
2016-01-27T04:44:22.259Z,0
2016-01-27T04:45:22.356Z,0
2016-01-27T04:46:22.280Z,0
2016-01-27T04:47:22.268Z,0
2016-01-27T04:48:22.270Z,0
2016-01-27T04:49:22.318Z,0
2016-01-27T04:50:22.260Z,0
2016-01-27T04:51:22.278Z,0
2016-01-27T04:52:22.267Z,0
2016-01-27T04:53:22.286Z,0
2016-01-27T04:54:22.304Z,0
2016-01-27T04:55:22.275Z,0
2016-01-27T04:56:22.279Z,0
2016-01-27T04:57:22.283Z,0
2016-01-27T04:58:22.300Z,0
2016-01-27T04:59:22.303Z,0
2016-01-27T05:00:22.371Z,0
2016-01-27T05:01:22.281Z,0
2016-01-27T05:02:22.283Z,0
2016-01-27T05:03:22.301Z,0
2016-01-27T05:04:22.274Z,0
2016-01-27T05:05:22.277Z,0
2016-01-27T05:06:22.280Z,0
2016-01-27T05:07:22.302Z,0
2016-01-27T05:08:22.288Z,0
2016-01-27T05:09:22.151Z,0
2016-01-27T05:10:22.309Z,0
2016-01-27T05:11:22.298Z,0
2016-01-27T05:12:22.317Z,0
2016-01-27T05:13:22.319Z,0
2016-01-27T05:14:22.275Z,0
2016-01-27T05:15:22.279Z,0
2016-01-27T05:16:22.283Z,0
2016-01-27T05:17:22.316Z,0
2016-01-27T05:18:22.289Z,0
2016-01-27T05:19:22.292Z,0
2016-01-27T05:20:22.283Z,0
2016-01-27T05:21:22.302Z,0
2016-01-27T05:22:22.325Z,0
2016-01-27T05:23:22.297Z,0
2016-01-27T05:24:22.299Z,0
2016-01-27T05:25:22.318Z,0
2016-01-27T05:26:22.306Z,0
2016-01-27T05:27:22.355Z,0
2016-01-27T05:28:22.311Z,0
2016-01-27T05:29:22.302Z,0
2016-01-27T05:30:22.338Z,0
2016-01-27T05:31:22.340Z,0
2016-01-27T05:32:22.326Z,0
2016-01-27T05:33:22.315Z,0
2016-01-27T05:34:22.317Z,0
2016-01-27T05:35:22.383Z,0
2016-01-27T05:36:22.343Z,0
2016-01-27T05:37:22.346Z,0
2016-01-27T05:38:22.333Z,0
2016-01-27T05:39:22.335Z,0
2016-01-27T05:40:22.326Z,0
2016-01-27T05:41:22.344Z,0
2016-01-27T05:42:22.347Z,0
2016-01-27T05:43:22.334Z,0
2016-01-27T05:44:22.324Z,0
2016-01-27T05:45:22.358Z,0
2016-01-27T05:46:22.329Z,0
2016-01-27T05:47:22.334Z,0
2016-01-27T05:48:22.337Z,0
2016-01-27T05:49:22.363Z,0
2016-01-27T05:50:22.241Z,0
2016-01-27T05:51:22.337Z,0
2016-01-27T05:52:22.341Z,0
2016-01-27T05:53:22.343Z,0
2016-01-27T05:54:22.346Z,0
2016-01-27T05:55:22.271Z,0
2016-01-27T05:56:22.351Z,0
2016-01-27T05:57:22.338Z,0
2016-01-27T05:58:22.340Z,0
2016-01-27T05:59:22.360Z,0
2016-01-27T06:00:22.409Z,0
2016-01-27T06:01:22.348Z,0
2016-01-27T06:02:22.351Z,0
2016-01-27T06:03:22.354Z,0
2016-01-27T06:04:22.359Z,0
2016-01-27T06:05:22.330Z,0
2016-01-27T06:06:22.336Z,0
2016-01-27T06:07:22.339Z,0
2016-01-27T06:08:22.373Z,0
2016-01-27T06:09:22.391Z,0
2016-01-27T06:10:22.425Z,0
2016-01-27T06:11:22.352Z,0
2016-01-27T06:12:22.354Z,0
2016-01-27T06:13:22.357Z,0
2016-01-27T06:14:22.391Z,0
2016-01-27T06:15:22.379Z,0
2016-01-27T06:16:22.366Z,0
2016-01-27T06:17:22.369Z,0
2016-01-27T06:18:22.390Z,0
2016-01-27T06:19:22.376Z,0
2016-01-27T06:20:22.362Z,0
2016-01-27T06:21:22.382Z,0
2016-01-27T06:22:22.387Z,0
2016-01-27T06:23:22.390Z,0
2016-01-27T06:24:22.439Z,0
2016-01-27T06:25:22.614Z,0
2016-01-27T06:26:22.711Z,0
2016-01-27T06:27:22.526Z,0
2016-01-27T06:28:22.405Z,0
2016-01-27T06:29:22.377Z,0
2016-01-27T06:30:22.380Z,0
2016-01-27T06:31:22.398Z,0
2016-01-27T06:32:22.402Z,0
2016-01-27T06:33:22.406Z,0
2016-01-27T06:34:22.392Z,0
2016-01-27T06:35:22.442Z,0
2016-01-27T06:36:22.413Z,0
2016-01-27T06:37:22.418Z,0
2016-01-27T06:38:22.420Z,0
2016-01-27T06:39:22.423Z,0
2016-01-27T06:40:22.411Z,0
2016-01-27T06:41:22.413Z,0
2016-01-27T06:42:22.432Z,0
2016-01-27T06:43:22.423Z,0
2016-01-27T06:44:22.427Z,0
2016-01-27T06:45:22.461Z,0
2016-01-27T06:46:22.447Z,0
2016-01-27T06:47:22.466Z,0
2016-01-27T06:48:22.426Z,0
2016-01-27T06:49:22.444Z,0
2016-01-27T06:50:22.509Z,0
2016-01-27T06:51:22.449Z,0
2016-01-27T06:52:22.452Z,0
2016-01-27T06:53:22.441Z,0
2016-01-27T06:54:22.445Z,0
2016-01-27T06:55:22.462Z,0
2016-01-27T06:56:22.465Z,0
2016-01-27T06:57:22.436Z,0
2016-01-27T06:58:22.297Z,0
2016-01-27T06:59:22.474Z,0
2016-01-27T07:00:22.320Z,0
2016-01-27T07:01:22.448Z,0
2016-01-27T07:02:22.484Z,0
2016-01-27T07:03:22.486Z,0
2016-01-27T07:04:22.489Z,0
2016-01-27T07:05:22.461Z,0
2016-01-27T07:06:22.464Z,0
2016-01-27T07:07:22.466Z,5
2016-01-27T07:08:22.500Z,5
2016-01-27T07:09:22.486Z,5
2016-01-27T07:10:22.555Z,5
2016-01-27T07:11:22.479Z,5
2016-01-27T07:12:22.496Z,5
2016-01-27T07:13:22.520Z,5
2016-01-27T07:14:22.491Z,5
2016-01-27T07:15:22.556Z,5
2016-01-27T07:16:22.481Z,5
2016-01-27T07:17:22.501Z,10
2016-01-27T07:18:22.535Z,10
2016-01-27T07:19:22.506Z,10
2016-01-27T07:20:22.634Z,10
2016-01-27T07:21:22.512Z,10
2016-01-27T07:22:22.562Z,10
2016-01-27T07:23:22.581Z,15
2016-01-27T07:24:22.507Z,15
2016-01-27T07:25:22.541Z,15
2016-01-27T07:26:22.559Z,15
2016-01-27T07:27:22.546Z,15
2016-01-27T07:28:22.534Z,15
2016-01-27T07:29:22.536Z,15
2016-01-27T07:30:22.585Z,15
2016-01-27T07:31:22.587Z,20
2016-01-27T07:32:22.545Z,20
2016-01-27T07:33:22.532Z,20
2016-01-27T07:34:22.551Z,20
2016-01-27T07:35:22.585Z,20
2016-01-27T07:36:22.399Z,20
2016-01-27T07:37:22.546Z,20
2016-01-27T07:38:22.563Z,20
2016-01-27T07:39:22.583Z,20
2016-01-27T07:40:22.632Z,20
2016-01-27T07:41:22.590Z,25
2016-01-27T07:42:22.593Z,25
2016-01-27T07:43:22.596Z,25
2016-01-27T07:44:22.602Z,25
2016-01-27T07:45:22.635Z,30
2016-01-27T07:46:22.591Z,30
2016-01-27T07:47:22.594Z,30
2016-01-27T07:48:22.598Z,30
2016-01-27T07:49:22.601Z,35
2016-01-27T07:50:22.636Z,35
2016-01-27T07:51:22.592Z,35
2016-01-27T07:52:22.595Z,35
2016-01-27T07:53:22.612Z,35
2016-01-27T07:54:22.618Z,35
2016-01-27T07:55:22.608Z,35
2016-01-27T07:56:22.626Z,35
2016-01-27T07:57:22.613Z,35
2016-01-27T07:58:22.648Z,35
2016-01-27T07:59:22.635Z,35
2016-01-27T08:00:22.716Z,35
2016-01-27T08:01:22.640Z,35
2016-01-27T08:02:22.627Z,35
2016-01-27T08:03:22.666Z,35
2016-01-27T08:04:22.636Z,35
2016-01-27T08:05:22.655Z,35
2016-01-27T08:06:22.675Z,35
2016-01-27T08:07:22.662Z,35
2016-01-27T08:08:22.680Z,35
2016-01-27T08:09:22.667Z,40
2016-01-27T08:10:22.671Z,40
2016-01-27T08:11:22.674Z,40
2016-01-27T08:12:22.724Z,40
2016-01-27T08:13:23.133Z,40
2016-01-27T08:14:22.686Z,40
2016-01-27T08:15:22.689Z,40
2016-01-27T08:16:22.675Z,40
2016-01-27T08:17:22.678Z,35
2016-01-27T08:18:22.681Z,35
2016-01-27T08:19:22.684Z,35
2016-01-27T08:20:22.687Z,35
2016-01-27T08:21:22.725Z,35
2016-01-27T08:22:22.727Z,35
2016-01-27T08:23:22.700Z,35
2016-01-27T08:24:22.703Z,40
2016-01-27T08:25:22.783Z,40
2016-01-27T08:26:22.724Z,40
2016-01-27T08:27:22.726Z,40
2016-01-27T08:28:22.714Z,40
2016-01-27T08:29:22.716Z,40
2016-01-27T08:30:22.612Z,45
2016-01-27T08:31:22.740Z,45
2016-01-27T08:32:22.730Z,45
2016-01-27T08:33:22.764Z,45
2016-01-27T08:34:22.735Z,45
2016-01-27T08:35:22.738Z,45
2016-01-27T08:36:22.741Z,50
2016-01-27T08:37:22.743Z,50
2016-01-27T08:38:22.778Z,50
2016-01-27T08:39:22.766Z,50
2016-01-27T08:40:22.866Z,50
2016-01-27T08:41:22.759Z,55
2016-01-27T08:42:22.808Z,55
2016-01-27T08:43:22.780Z,55
2016-01-27T08:44:22.768Z,55
2016-01-27T08:45:22.786Z,60
2016-01-27T08:46:22.788Z,60
2016-01-27T08:47:22.807Z,60
2016-01-27T08:48:22.794Z,60
2016-01-27T08:49:22.818Z,60
2016-01-27T08:50:22.805Z,60
2016-01-27T08:51:22.808Z,60
2016-01-27T08:52:22.687Z,65
2016-01-27T08:53:22.814Z,70
2016-01-27T08:54:22.849Z,70
2016-01-27T08:55:22.820Z,75
2016-01-27T08:56:22.843Z,80
2016-01-27T08:57:22.860Z,80
2016-01-27T08:58:22.848Z,85
2016-01-27T08:59:22.851Z,90
2016-01-27T09:00:22.869Z,90
2016-01-27T09:01:28.185Z,95
2016-01-27T09:02:22.859Z,100
2016-01-27T09:03:22.865Z,105
2016-01-27T09:04:22.868Z,105
2016-01-27T09:05:22.885Z,105
2016-01-27T09:06:22.873Z,110
2016-01-27T09:07:22.892Z,110
2016-01-27T09:08:22.880Z,110
2016-01-27T09:09:22.882Z,110
2016-01-27T09:10:23.228Z,110
2016-01-27T09:11:22.891Z,115
2016-01-27T09:12:22.894Z,115
2016-01-27T09:13:22.944Z,115
2016-01-27T09:14:22.900Z,115
2016-01-27T09:15:22.919Z,115
2016-01-27T09:16:22.906Z,115
2016-01-27T09:17:22.909Z,115
2016-01-27T09:18:22.914Z,115
2016-01-27T09:19:22.906Z,110
2016-01-27T09:20:22.924Z,110
2016-01-27T09:21:22.943Z,110
2016-01-27T09:22:22.931Z,115
2016-01-27T09:23:22.942Z,115
2016-01-27T09:24:22.931Z,115
2016-01-27T09:25:22.979Z,115
2016-01-27T09:26:22.954Z,115
2016-01-27T09:27:23.504Z,115
2016-01-27T09:28:23.209Z,115
2016-01-27T09:29:23.260Z,120
2016-01-27T09:30:23.200Z,120
2016-01-27T09:31:23.047Z,120
2016-01-27T09:32:22.971Z,120
2016-01-27T09:33:22.993Z,125
2016-01-27T09:34:22.996Z,125
2016-01-27T09:35:23.044Z,125
2016-01-27T09:36:23.001Z,125
2016-01-27T09:37:23.004Z,125
2016-01-27T09:38:23.023Z,130
2016-01-27T09:39:23.025Z,130
2016-01-27T09:40:23.091Z,130
2016-01-27T09:41:23.030Z,135
2016-01-27T09:42:23.035Z,135
2016-01-27T09:43:23.038Z,135
2016-01-27T09:44:23.043Z,135
2016-01-27T09:45:23.078Z,135
2016-01-27T09:46:23.049Z,135
2016-01-27T09:47:23.083Z,135
2016-01-27T09:48:23.089Z,135
2016-01-27T09:49:23.077Z,135
2016-01-27T09:50:23.064Z,135
2016-01-27T09:51:23.051Z,135
2016-01-27T09:52:23.100Z,140
2016-01-27T09:53:23.088Z,140
2016-01-27T09:54:23.098Z,140
2016-01-27T09:55:23.167Z,140
2016-01-27T09:56:23.107Z,140
2016-01-27T09:57:23.110Z,140
2016-01-27T09:58:23.097Z,145
2016-01-27T09:59:23.162Z,150
2016-01-27T10:00:23.149Z,155
2016-01-27T10:01:23.139Z,160
2016-01-27T10:02:23.125Z,150
2016-01-27T10:03:23.143Z,150
2016-01-27T10:04:23.163Z,150
2016-01-27T10:05:23.134Z,155
2016-01-27T10:06:23.153Z,155
2016-01-27T10:07:23.155Z,155
2016-01-27T10:08:23.163Z,160
2016-01-27T10:09:23.180Z,165
2016-01-27T10:10:23.200Z,170
2016-01-27T10:11:23.171Z,170
2016-01-27T10:12:23.222Z,170
2016-01-27T10:13:23.178Z,180
2016-01-27T10:14:23.195Z,185
2016-01-27T10:15:23.277Z,185
2016-01-27T10:16:23.202Z,180
2016-01-27T10:17:23.377Z,180
2016-01-27T10:18:23.207Z,180
2016-01-27T10:19:23.242Z,180
2016-01-27T10:20:23.291Z,180
2016-01-27T10:21:23.249Z,180
2016-01-27T10:22:23.266Z,195
2016-01-27T10:23:23.222Z,190
2016-01-27T10:24:23.257Z,190
2016-01-27T10:25:23.340Z,195
2016-01-27T10:26:23.267Z,190
2016-01-27T10:27:23.301Z,200
2016-01-27T10:28:23.257Z,195
2016-01-27T10:29:23.275Z,190
2016-01-27T10:30:23.342Z,185
2016-01-27T10:31:23.282Z,190
2016-01-27T10:32:23.285Z,185
2016-01-27T10:33:23.288Z,180
2016-01-27T10:34:23.340Z,180
2016-01-27T10:35:23.202Z,170
2016-01-27T10:36:23.315Z,165
2016-01-27T10:37:23.304Z,165
2016-01-27T10:38:23.307Z,165
2016-01-27T10:39:23.309Z,160
2016-01-27T10:40:23.359Z,160
2016-01-27T10:41:23.347Z,160
2016-01-27T10:42:23.349Z,155
2016-01-27T10:43:23.368Z,155
2016-01-27T10:44:23.340Z,150
2016-01-27T10:45:23.376Z,150
2016-01-27T10:46:23.362Z,150
2016-01-27T10:47:23.366Z,150
2016-01-27T10:48:23.384Z,155
2016-01-27T10:49:23.372Z,155
2016-01-27T10:50:23.484Z,150
2016-01-27T10:51:23.408Z,150
2016-01-27T10:52:23.412Z,150
2016-01-27T10:53:23.382Z,150
2016-01-27T10:54:23.433Z,150
2016-01-27T10:55:23.404Z,150
2016-01-27T10:56:23.409Z,150
2016-01-27T10:57:23.439Z,150
2016-01-27T10:58:23.426Z,155
2016-01-27T10:59:23.460Z,155
2016-01-27T11:00:23.511Z,155
2016-01-27T11:01:23.436Z,160
2016-01-27T11:02:23.438Z,160
2016-01-27T11:03:23.473Z,160
2016-01-27T11:04:23.476Z,165
2016-01-27T11:05:23.525Z,160
2016-01-27T11:06:23.512Z,160
2016-01-27T11:07:23.515Z,160
2016-01-27T11:08:23.533Z,165
2016-01-27T11:09:23.505Z,165
2016-01-27T11:10:23.540Z,165
2016-01-27T11:11:23.505Z,165
2016-01-27T11:12:23.482Z,165
2016-01-27T11:13:23.489Z,165
2016-01-27T11:14:23.497Z,160
2016-01-27T11:15:23.490Z,160
2016-01-27T11:16:23.536Z,155
2016-01-27T11:17:23.480Z,150
2016-01-27T11:18:23.479Z,150
2016-01-27T11:19:23.478Z,150
2016-01-27T11:20:23.555Z,150
2016-01-27T11:21:23.494Z,155
2016-01-27T11:22:23.510Z,150
2016-01-27T11:23:23.543Z,150
2016-01-27T11:24:23.515Z,150
2016-01-27T11:25:23.511Z,150
2016-01-27T11:26:23.497Z,150
2016-01-27T11:27:23.578Z,150
2016-01-27T11:28:23.534Z,150
2016-01-27T11:29:23.552Z,150
2016-01-27T11:30:23.554Z,145
2016-01-27T11:31:23.557Z,145
2016-01-27T11:32:23.544Z,145
2016-01-27T11:33:23.562Z,150
2016-01-27T11:34:23.595Z,150
2016-01-27T11:35:23.632Z,155
2016-01-27T11:36:23.573Z,165
2016-01-27T11:37:23.575Z,170
2016-01-27T11:38:23.594Z,180
2016-01-27T11:39:23.583Z,185
2016-01-27T11:40:23.664Z,185
2016-01-27T11:41:23.604Z,175
2016-01-27T11:42:23.625Z,170
2016-01-27T11:43:23.612Z,160
2016-01-27T11:44:23.615Z,160
2016-01-27T11:45:23.742Z,155
2016-01-27T11:46:23.622Z,150
2016-01-27T11:47:23.625Z,150
2016-01-27T11:48:23.705Z,150
2016-01-27T11:49:23.646Z,140
2016-01-27T11:50:23.775Z,140
2016-01-27T11:51:23.684Z,140
2016-01-27T11:52:23.671Z,135
2016-01-27T11:53:23.707Z,130
2016-01-27T11:54:23.677Z,120
2016-01-27T11:55:23.805Z,110
2016-01-27T11:56:23.693Z,105
2016-01-27T11:57:23.712Z,100
2016-01-27T11:58:23.808Z,100
2016-01-27T11:59:23.702Z,95
2016-01-27T12:00:23.782Z,95
2016-01-27T12:01:23.738Z,90
2016-01-27T12:02:23.725Z,90
2016-01-27T12:03:23.743Z,90
2016-01-27T12:04:23.746Z,90
2016-01-27T12:05:23.733Z,90
2016-01-27T12:06:23.751Z,90
2016-01-27T12:07:23.786Z,85
2016-01-27T12:08:23.757Z,85
2016-01-27T12:09:23.823Z,85
2016-01-27T12:10:23.795Z,85
2016-01-27T12:11:23.813Z,80
2016-01-27T12:12:23.816Z,80
2016-01-27T12:13:23.787Z,80
2016-01-27T12:14:23.822Z,80
2016-01-27T12:15:23.825Z,80
2016-01-27T12:16:23.859Z,80
2016-01-27T12:17:23.877Z,75
2016-01-27T12:18:23.864Z,75
2016-01-27T12:19:23.824Z,75
2016-01-27T12:20:23.906Z,70
2016-01-27T12:21:23.861Z,70
2016-01-27T12:22:23.879Z,70
2016-01-27T12:23:23.887Z,70
2016-01-27T12:24:23.889Z,70
2016-01-27T12:25:23.892Z,65
2016-01-27T12:26:23.879Z,65
2016-01-27T12:27:23.903Z,65
2016-01-27T12:28:23.906Z,70
2016-01-27T12:29:23.908Z,70
2016-01-27T12:30:23.957Z,70
2016-01-27T12:31:23.897Z,70
2016-01-27T12:32:23.905Z,70
2016-01-27T12:33:23.907Z,70
2016-01-27T12:34:23.911Z,70
2016-01-27T12:35:23.977Z,70
2016-01-27T12:36:23.981Z,70
2016-01-27T12:37:23.968Z,75
2016-01-27T12:38:23.923Z,80
2016-01-27T12:39:23.973Z,80
2016-01-27T12:40:23.997Z,80
2016-01-27T12:41:23.999Z,80
2016-01-27T12:42:23.955Z,80
2016-01-27T12:43:23.803Z,85
2016-01-27T12:44:23.977Z,90
2016-01-27T12:45:24.058Z,95
2016-01-27T12:46:23.843Z,95
2016-01-27T12:47:24.020Z,95
2016-01-27T12:48:24.022Z,95
2016-01-27T12:49:24.008Z,95
2016-01-27T12:50:24.011Z,95
2016-01-27T12:51:24.015Z,95
2016-01-27T12:52:24.018Z,95
2016-01-27T12:53:24.051Z,95
2016-01-27T12:54:24.041Z,100
2016-01-27T12:55:24.110Z,100
2016-01-27T12:56:24.035Z,100
2016-01-27T12:57:24.053Z,105
2016-01-27T12:58:24.090Z,105
2016-01-27T12:59:24.061Z,100
2016-01-27T13:00:24.126Z,100
2016-01-27T13:01:24.082Z,100
2016-01-27T13:02:24.070Z,100
2016-01-27T13:03:24.105Z,95
2016-01-27T13:04:24.107Z,95
2016-01-27T13:05:24.140Z,90
2016-01-27T13:06:24.084Z,85
2016-01-27T13:07:24.133Z,85
2016-01-27T13:08:24.120Z,85
2016-01-27T13:09:24.156Z,85
2016-01-27T13:10:24.238Z,85
2016-01-27T13:11:24.130Z,85
2016-01-27T13:12:24.132Z,85
2016-01-27T13:13:24.135Z,85
2016-01-27T13:14:24.170Z,90
2016-01-27T13:15:24.204Z,90
2016-01-27T13:16:24.175Z,90
2016-01-27T13:17:24.207Z,95
2016-01-27T13:18:24.209Z,95
2016-01-27T13:19:24.212Z,95
2016-01-27T13:20:24.261Z,95
2016-01-27T13:21:24.200Z,95
2016-01-27T13:22:24.236Z,95
2016-01-27T13:23:24.214Z,90
2016-01-27T13:24:24.248Z,95
2016-01-27T13:25:24.266Z,100
2016-01-27T13:26:24.240Z,100
2016-01-27T13:27:24.242Z,100
2016-01-27T13:28:24.233Z,100
2016-01-27T13:29:24.252Z,100
2016-01-27T13:30:24.333Z,100
2016-01-27T13:31:24.273Z,100
2016-01-27T13:32:24.293Z,100
2016-01-27T13:33:24.265Z,100
2016-01-27T13:34:24.283Z,100
2016-01-27T13:35:24.304Z,100
2016-01-27T13:36:24.322Z,95
2016-01-27T13:37:24.357Z,95
2016-01-27T13:38:24.391Z,95
2016-01-27T13:39:24.331Z,90
2016-01-27T13:40:24.428Z,90
2016-01-27T13:41:24.322Z,90
2016-01-27T13:42:24.325Z,85
2016-01-27T13:43:24.343Z,85
2016-01-27T13:44:24.361Z,85
2016-01-27T13:45:24.349Z,80
2016-01-27T13:46:24.336Z,80
2016-01-27T13:47:24.354Z,80
2016-01-27T13:48:24.359Z,85
2016-01-27T13:49:24.378Z,85
2016-01-27T13:50:24.398Z,85
2016-01-27T13:51:24.368Z,90
2016-01-27T13:52:24.371Z,95
2016-01-27T13:53:24.390Z,100
2016-01-27T13:54:24.859Z,100
2016-01-27T13:55:24.314Z,105
2016-01-27T13:56:24.380Z,105
2016-01-27T13:57:24.415Z,105
2016-01-27T13:58:24.402Z,105
2016-01-27T13:59:24.404Z,105
2016-01-27T14:00:24.485Z,100
2016-01-27T14:01:24.426Z,100
2016-01-27T14:02:24.429Z,100
2016-01-27T14:03:24.791Z,100
2016-01-27T14:04:24.466Z,100
2016-01-27T14:05:24.515Z,100
2016-01-27T14:06:24.471Z,100
2016-01-27T14:07:24.317Z,100
2016-01-27T14:08:24.460Z,100
2016-01-27T14:09:24.479Z,95
2016-01-27T14:10:24.529Z,95
2016-01-27T14:11:24.518Z,95
2016-01-27T14:12:24.505Z,95
2016-01-27T14:13:24.493Z,90
2016-01-27T14:14:24.511Z,90
2016-01-27T14:15:24.499Z,90
2016-01-27T14:16:24.516Z,90
2016-01-27T14:17:24.520Z,90
2016-01-27T14:18:24.530Z,90
2016-01-27T14:19:24.533Z,90
2016-01-27T14:20:24.598Z,85
2016-01-27T14:21:24.554Z,85
2016-01-27T14:22:24.573Z,85
2016-01-27T14:23:24.638Z,85